sensor_id;sensor_type;location;lat;lon;timestamp;pressure;altitude;pressure_sealevel;temperature;humidity
55490;BME280;44029;52.956;4.772;2022-08-20T00:01:00;101623.94;;;21.32;100.00
55490;BME280;44029;52.956;4.772;2022-08-20T00:03:29;101621.09;;;21.37;100.00
55490;BME280;44029;52.956;4.772;2022-08-20T00:06:04;101632.41;;;21.46;100.00
55490;BME280;44029;52.956;4.772;2022-08-20T00:08:31;101631.84;;;21.43;100.00
55490;BME280;44029;52.956;4.772;2022-08-20T00:10:59;101636.75;;;21.52;100.00
55490;BME280;44029;52.956;4.772;2022-08-20T00:13:31;101632.84;;;21.53;100.00
55490;BME280;44029;52.956;4.772;2022-08-20T00:15:57;101637.03;;;21.50;100.00
55490;BME280;44029;52.956;4.772;2022-08-20T00:18:24;101629.06;;;21.43;100.00
55490;BME280;44029;52.956;4.772;2022-08-20T00:20:51;101630.25;;;21.37;100.00
55490;BME280;44029;52.956;4.772;2022-08-20T00:23:18;101624.69;;;21.37;100.00
55490;BME280;44029;52.956;4.772;2022-08-20T00:25:43;101619.75;;;21.34;100.00
55490;BME280;44029;52.956;4.772;2022-08-20T00:28:10;101625.91;;;21.31;100.00
55490;BME280;44029;52.956;4.772;2022-08-20T00:30:36;101621.78;;;21.29;100.00
55490;BME280;44029;52.956;4.772;2022-08-20T00:33:09;101621.47;;;21.30;100.00
55490;BME280;44029;52.956;4.772;2022-08-20T00:35:39;101618.66;;;21.30;100.00
55490;BME280;44029;52.956;4.772;2022-08-20T00:38:05;101626.28;;;21.24;100.00
55490;BME280;44029;52.956;4.772;2022-08-20T00:40:35;101628.41;;;21.33;100.00
55490;BME280;44029;52.956;4.772;2022-08-20T00:43:03;101634.97;;;21.23;100.00
55490;BME280;44029;52.956;4.772;2022-08-20T00:45:32;101631.84;;;21.24;100.00
55490;BME280;44029;52.956;4.772;2022-08-20T00:47:58;101625.41;;;21.10;100.00
55490;BME280;44029;52.956;4.772;2022-08-20T00:50:31;101627.22;;;21.20;100.00
55490;BME280;44029;52.956;4.772;2022-08-20T00:52:58;101628.03;;;21.20;100.00
55490;BME280;44029;52.956;4.772;2022-08-20T00:55:27;101634.97;;;21.23;100.00
55490;BME280;44029;52.956;4.772;2022-08-20T00:57:56;101633.44;;;21.12;100.00
55490;BME280;44029;52.956;4.772;2022-08-20T01:00:27;101629.25;;;21.14;100.00
55490;BME280;44029;52.956;4.772;2022-08-20T01:02:53;101624.56;;;21.10;100.00
55490;BME280;44029;52.956;4.772;2022-08-20T01:05:19;101626.63;;;21.04;100.00
55490;BME280;44029;52.956;4.772;2022-08-20T01:07:48;101631.72;;;20.97;100.00
55490;BME280;44029;52.956;4.772;2022-08-20T01:10:17;101630.31;;;20.99;100.00
55490;BME280;44029;52.956;4.772;2022-08-20T01:12:45;101630.75;;;20.88;100.00
55490;BME280;44029;52.956;4.772;2022-08-20T01:15:13;101632.50;;;20.83;100.00
55490;BME280;44029;52.956;4.772;2022-08-20T01:17:43;101636.31;;;20.88;100.00
55490;BME280;44029;52.956;4.772;2022-08-20T01:20:13;101637.09;;;20.93;100.00
55490;BME280;44029;52.956;4.772;2022-08-20T01:22:53;101638.06;;;20.83;100.00
55490;BME280;44029;52.956;4.772;2022-08-20T01:25:57;101643.84;;;20.87;100.00
55490;BME280;44029;52.956;4.772;2022-08-20T01:31:11;101644.91;;;20.91;100.00
55490;BME280;44029;52.956;4.772;2022-08-20T01:33:37;101646.72;;;20.82;100.00
55490;BME280;44029;52.956;4.772;2022-08-20T01:36:04;101646.06;;;20.90;100.00
55490;BME280;44029;52.956;4.772;2022-08-20T01:38:29;101646.56;;;20.73;100.00
55490;BME280;44029;52.956;4.772;2022-08-20T01:41:18;101638.81;;;20.89;100.00
55490;BME280;44029;52.956;4.772;2022-08-20T01:43:50;101650.63;;;20.81;100.00
55490;BME280;44029;52.956;4.772;2022-08-20T01:46:21;101647.75;;;20.67;100.00
55490;BME280;44029;52.956;4.772;2022-08-20T01:48:46;101651.69;;;20.66;100.00
55490;BME280;44029;52.956;4.772;2022-08-20T01:51:15;101653.56;;;20.71;100.00
55490;BME280;44029;52.956;4.772;2022-08-20T01:53:51;101661.44;;;20.63;100.00
55490;BME280;44029;52.956;4.772;2022-08-20T01:56:20;101652.81;;;20.60;100.00
55490;BME280;44029;52.956;4.772;2022-08-20T01:58:48;101655.59;;;20.60;100.00
55490;BME280;44029;52.956;4.772;2022-08-20T02:01:30;101657.84;;;20.63;100.00
55490;BME280;44029;52.956;4.772;2022-08-20T02:04:01;101657.38;;;20.51;100.00
55490;BME280;44029;52.956;4.772;2022-08-20T02:06:31;101654.84;;;20.54;100.00
55490;BME280;44029;52.956;4.772;2022-08-20T02:08:59;101651.75;;;20.56;100.00
55490;BME280;44029;52.956;4.772;2022-08-20T02:11:26;101658.78;;;20.53;100.00
55490;BME280;44029;52.956;4.772;2022-08-20T02:13:52;101661.59;;;20.48;100.00
55490;BME280;44029;52.956;4.772;2022-08-20T02:16:20;101660.97;;;20.32;100.00
55490;BME280;44029;52.956;4.772;2022-08-20T02:18:48;101656.19;;;20.38;100.00
55490;BME280;44029;52.956;4.772;2022-08-20T02:21:14;101662.63;;;20.33;100.00
55490;BME280;44029;52.956;4.772;2022-08-20T02:23:40;101667.94;;;20.30;100.00
55490;BME280;44029;52.956;4.772;2022-08-20T02:26:05;101671.78;;;20.34;100.00
55490;BME280;44029;52.956;4.772;2022-08-20T02:28:31;101661.44;;;20.39;100.00
55490;BME280;44029;52.956;4.772;2022-08-20T02:30:57;101660.13;;;20.32;100.00
55490;BME280;44029;52.956;4.772;2022-08-20T02:33:24;101678.50;;;20.33;100.00
55490;BME280;44029;52.956;4.772;2022-08-20T02:35:51;101670.44;;;20.31;100.00
55490;BME280;44029;52.956;4.772;2022-08-20T02:38:17;101667.72;;;20.26;100.00
55490;BME280;44029;52.956;4.772;2022-08-20T02:40:44;101666.41;;;20.42;100.00
55490;BME280;44029;52.956;4.772;2022-08-20T02:43:10;101671.94;;;20.23;100.00
55490;BME280;44029;52.956;4.772;2022-08-20T02:45:36;101676.66;;;20.23;100.00
55490;BME280;44029;52.956;4.772;2022-08-20T02:48:09;101670.50;;;20.26;100.00
55490;BME280;44029;52.956;4.772;2022-08-20T02:50:34;101671.94;;;20.23;100.00
55490;BME280;44029;52.956;4.772;2022-08-20T02:52:59;101677.78;;;20.22;100.00
55490;BME280;44029;52.956;4.772;2022-08-20T02:55:25;101668.91;;;20.20;100.00
55490;BME280;44029;52.956;4.772;2022-08-20T02:57:52;101668.63;;;20.21;100.00
55490;BME280;44029;52.956;4.772;2022-08-20T03:00:20;101668.31;;;20.23;100.00
55490;BME280;44029;52.956;4.772;2022-08-20T03:02:46;101669.25;;;20.13;100.00
55490;BME280;44029;52.956;4.772;2022-08-20T03:05:12;101664.22;;;20.15;100.00
55490;BME280;44029;52.956;4.772;2022-08-20T03:07:46;101668.38;;;20.18;100.00
55490;BME280;44029;52.956;4.772;2022-08-20T03:10:12;101664.28;;;20.10;100.00
55490;BME280;44029;52.956;4.772;2022-08-20T03:12:39;101659.59;;;20.05;100.00
55490;BME280;44029;52.956;4.772;2022-08-20T03:15:07;101653.16;;;20.10;100.00
55490;BME280;44029;52.956;4.772;2022-08-20T03:17:33;101661.56;;;20.05;100.00
55490;BME280;44029;52.956;4.772;2022-08-20T03:19:58;101657.16;;;19.99;100.00
55490;BME280;44029;52.956;4.772;2022-08-20T03:22:24;101654.72;;;19.92;100.00
55490;BME280;44029;52.956;4.772;2022-08-20T03:24:49;101655.91;;;19.86;100.00
55490;BME280;44029;52.956;4.772;2022-08-20T03:27:14;101661.16;;;19.87;100.00
55490;BME280;44029;52.956;4.772;2022-08-20T03:29:40;101662.28;;;19.86;100.00
55490;BME280;44029;52.956;4.772;2022-08-20T03:32:05;101665.94;;;19.82;100.00
55490;BME280;44029;52.956;4.772;2022-08-20T03:34:30;101676.03;;;19.73;100.00
55490;BME280;44029;52.956;4.772;2022-08-20T03:36:55;101661.94;;;19.64;100.00
55490;BME280;44029;52.956;4.772;2022-08-20T03:39:21;101676.44;;;19.56;100.00
55490;BME280;44029;52.956;4.772;2022-08-20T03:41:46;101677.06;;;19.47;100.00
55490;BME280;44029;52.956;4.772;2022-08-20T03:44:12;101680.91;;;19.51;100.00
55490;BME280;44029;52.956;4.772;2022-08-20T03:46:37;101687.00;;;19.54;100.00
55490;BME280;44029;52.956;4.772;2022-08-20T03:49:03;101689.63;;;19.40;100.00
55490;BME280;44029;52.956;4.772;2022-08-20T03:51:30;101686.69;;;19.21;100.00
55490;BME280;44029;52.956;4.772;2022-08-20T03:53:56;101695.16;;;19.00;100.00
55490;BME280;44029;52.956;4.772;2022-08-20T03:56:21;101691.94;;;18.83;100.00
55490;BME280;44029;52.956;4.772;2022-08-20T03:58:47;101697.22;;;18.69;100.00
55490;BME280;44029;52.956;4.772;2022-08-20T04:01:12;101694.97;;;18.71;100.00
55490;BME280;44029;52.956;4.772;2022-08-20T04:03:37;101694.97;;;18.81;100.00
55490;BME280;44029;52.956;4.772;2022-08-20T04:06:03;101708.28;;;18.79;100.00
55490;BME280;44029;52.956;4.772;2022-08-20T04:08:28;101705.81;;;18.67;100.00
55490;BME280;44029;52.956;4.772;2022-08-20T04:10:55;101696.66;;;18.67;100.00
55490;BME280;44029;52.956;4.772;2022-08-20T04:13:25;101695.31;;;18.64;100.00
55490;BME280;44029;52.956;4.772;2022-08-20T04:15:51;101705.31;;;18.60;100.00
55490;BME280;44029;52.956;4.772;2022-08-20T04:18:22;101695.06;;;18.55;100.00
55490;BME280;44029;52.956;4.772;2022-08-20T04:20:48;101694.25;;;18.45;100.00
55490;BME280;44029;52.956;4.772;2022-08-20T04:23:14;101691.25;;;18.36;100.00
55490;BME280;44029;52.956;4.772;2022-08-20T04:25:41;101705.41;;;18.29;100.00
55490;BME280;44029;52.956;4.772;2022-08-20T04:28:11;101709.25;;;18.39;100.00
55490;BME280;44029;52.956;4.772;2022-08-20T04:30:37;101717.63;;;18.18;100.00
55490;BME280;44029;52.956;4.772;2022-08-20T04:33:02;101722.31;;;18.33;100.00
55490;BME280;44029;52.956;4.772;2022-08-20T04:35:28;101712.03;;;18.33;100.00
55490;BME280;44029;52.956;4.772;2022-08-20T04:38:03;101719.53;;;18.38;100.00
55490;BME280;44029;52.956;4.772;2022-08-20T04:40:29;101725.91;;;18.44;100.00
55490;BME280;44029;52.956;4.772;2022-08-20T04:43:14;101734.78;;;18.41;100.00
55490;BME280;44029;52.956;4.772;2022-08-20T04:45:40;101734.50;;;18.47;100.00
55490;BME280;44029;52.956;4.772;2022-08-20T04:48:06;101728.13;;;18.37;100.00
55490;BME280;44029;52.956;4.772;2022-08-20T04:50:33;101731.72;;;18.47;100.00
55490;BME280;44029;52.956;4.772;2022-08-20T04:53:01;101729.22;;;18.46;100.00
55490;BME280;44029;52.956;4.772;2022-08-20T04:55:27;101731.41;;;18.59;100.00
55490;BME280;44029;52.956;4.772;2022-08-20T04:57:52;101724.16;;;18.58;100.00
55490;BME280;44029;52.956;4.772;2022-08-20T05:00:18;101734.44;;;18.63;100.00
55490;BME280;44029;52.956;4.772;2022-08-20T05:02:44;101731.06;;;18.71;100.00
55490;BME280;44029;52.956;4.772;2022-08-20T05:05:10;101732.75;;;18.72;100.00
55490;BME280;44029;52.956;4.772;2022-08-20T05:07:41;101741.34;;;18.76;100.00
55490;BME280;44029;52.956;4.772;2022-08-20T05:10:10;101745.81;;;18.71;100.00
55490;BME280;44029;52.956;4.772;2022-08-20T05:12:37;101741.56;;;18.89;100.00
55490;BME280;44029;52.956;4.772;2022-08-20T05:15:03;101732.16;;;19.75;100.00
55490;BME280;44029;52.956;4.772;2022-08-20T05:17:28;101736.06;;;19.34;100.00
55490;BME280;44029;52.956;4.772;2022-08-20T05:19:54;101725.78;;;20.62;100.00
55490;BME280;44029;52.956;4.772;2022-08-20T05:22:19;101706.69;;;22.02;100.00
55490;BME280;44029;52.956;4.772;2022-08-20T05:24:45;101695.63;;;22.71;100.00
55490;BME280;44029;52.956;4.772;2022-08-20T05:27:10;101702.91;;;22.12;100.00
55490;BME280;44029;52.956;4.772;2022-08-20T05:29:36;101707.41;;;22.68;100.00
55490;BME280;44029;52.956;4.772;2022-08-20T05:32:01;101710.41;;;23.59;100.00
55490;BME280;44029;52.956;4.772;2022-08-20T05:34:27;101703.28;;;23.98;100.00
55490;BME280;44029;52.956;4.772;2022-08-20T05:36:52;101714.03;;;24.44;100.00
55490;BME280;44029;52.956;4.772;2022-08-20T05:39:19;101709.34;;;24.54;100.00
55490;BME280;44029;52.956;4.772;2022-08-20T05:41:46;101714.94;;;23.91;100.00
55490;BME280;44029;52.956;4.772;2022-08-20T05:44:15;101709.69;;;22.66;100.00
55490;BME280;44029;52.956;4.772;2022-08-20T05:46:43;101725.53;;;22.10;100.00
55490;BME280;44029;52.956;4.772;2022-08-20T05:49:11;101726.81;;;21.85;100.00
55490;BME280;44029;52.956;4.772;2022-08-20T05:51:37;101726.41;;;21.59;100.00
55490;BME280;44029;52.956;4.772;2022-08-20T05:54:04;101732.59;;;21.89;100.00
55490;BME280;44029;52.956;4.772;2022-08-20T05:56:30;101734.06;;;21.86;100.00
55490;BME280;44029;52.956;4.772;2022-08-20T05:58:58;101738.53;;;21.68;100.00
55490;BME280;44029;52.956;4.772;2022-08-20T06:01:25;101734.34;;;21.85;100.00
55490;BME280;44029;52.956;4.772;2022-08-20T06:03:50;101738.31;;;21.65;100.00
55490;BME280;44029;52.956;4.772;2022-08-20T06:06:34;101736.63;;;21.83;100.00
55490;BME280;44029;52.956;4.772;2022-08-20T06:09:00;101742.75;;;21.66;100.00
55490;BME280;44029;52.956;4.772;2022-08-20T06:11:25;101740.63;;;21.76;100.00
55490;BME280;44029;52.956;4.772;2022-08-20T06:13:51;101742.53;;;21.62;100.00
55490;BME280;44029;52.956;4.772;2022-08-20T06:16:16;101752.78;;;21.67;100.00
55490;BME280;44029;52.956;4.772;2022-08-20T06:18:42;101751.97;;;21.66;100.00
55490;BME280;44029;52.956;4.772;2022-08-20T06:21:07;101741.75;;;21.75;100.00
55490;BME280;44029;52.956;4.772;2022-08-20T06:23:32;101738.38;;;21.78;100.00
55490;BME280;44029;52.956;4.772;2022-08-20T06:25:58;101736.56;;;21.69;100.00
55490;BME280;44029;52.956;4.772;2022-08-20T06:28:23;101726.28;;;21.83;100.00
55490;BME280;44029;52.956;4.772;2022-08-20T06:30:48;101731.72;;;21.93;100.00
55490;BME280;44029;52.956;4.772;2022-08-20T06:33:14;101733.41;;;22.08;100.00
55490;BME280;44029;52.956;4.772;2022-08-20T06:35:39;101724.19;;;22.54;100.00
55490;BME280;44029;52.956;4.772;2022-08-20T06:38:05;101728.28;;;22.71;100.00
55490;BME280;44029;52.956;4.772;2022-08-20T06:40:31;101735.66;;;22.81;100.00
55490;BME280;44029;52.956;4.772;2022-08-20T06:42:58;101737.38;;;23.77;100.00
55490;BME280;44029;52.956;4.772;2022-08-20T06:45:26;101727.38;;;23.62;100.00
55490;BME280;44029;52.956;4.772;2022-08-20T06:47:54;101727.50;;;23.57;100.00
55490;BME280;44029;52.956;4.772;2022-08-20T06:50:27;101723.94;;;24.42;100.00
55490;BME280;44029;52.956;4.772;2022-08-20T06:52:53;101729.91;;;25.15;100.00
55490;BME280;44029;52.956;4.772;2022-08-20T06:55:19;101724.25;;;26.67;100.00
55490;BME280;44029;52.956;4.772;2022-08-20T06:57:45;101739.47;;;26.19;100.00
55490;BME280;44029;52.956;4.772;2022-08-20T07:00:16;101735.00;;;24.16;100.00
55490;BME280;44029;52.956;4.772;2022-08-20T07:02:42;101738.34;;;23.95;100.00
55490;BME280;44029;52.956;4.772;2022-08-20T07:05:08;101742.38;;;24.11;100.00
55490;BME280;44029;52.956;4.772;2022-08-20T07:07:34;101744.50;;;24.37;100.00
55490;BME280;44029;52.956;4.772;2022-08-20T07:10:04;101751.34;;;24.22;100.00
55490;BME280;44029;52.956;4.772;2022-08-20T07:12:30;101737.19;;;23.96;100.00
55490;BME280;44029;52.956;4.772;2022-08-20T07:14:55;101742.47;;;23.98;100.00
55490;BME280;44029;52.956;4.772;2022-08-20T07:17:20;101735.69;;;23.90;100.00
55490;BME280;44029;52.956;4.772;2022-08-20T07:19:46;101742.41;;;23.89;100.00
55490;BME280;44029;52.956;4.772;2022-08-20T07:22:11;101738.28;;;23.86;100.00
55490;BME280;44029;52.956;4.772;2022-08-20T07:24:37;101744.19;;;23.85;100.00
55490;BME280;44029;52.956;4.772;2022-08-20T07:27:03;101740.78;;;23.74;100.00
55490;BME280;44029;52.956;4.772;2022-08-20T07:29:28;101736.38;;;23.73;100.00
55490;BME280;44029;52.956;4.772;2022-08-20T07:32:14;101741.66;;;23.97;100.00
55490;BME280;44029;52.956;4.772;2022-08-20T07:34:58;101741.75;;;24.15;100.00
55490;BME280;44029;52.956;4.772;2022-08-20T07:37:23;101745.44;;;24.55;100.00
55490;BME280;44029;52.956;4.772;2022-08-20T07:39:49;101748.31;;;24.41;100.00
55490;BME280;44029;52.956;4.772;2022-08-20T07:42:14;101743.25;;;24.52;100.00
55490;BME280;44029;52.956;4.772;2022-08-20T07:44:40;101744.56;;;24.95;100.00
55490;BME280;44029;52.956;4.772;2022-08-20T07:47:05;101740.38;;;25.93;100.00
55490;BME280;44029;52.956;4.772;2022-08-20T07:49:31;101736.06;;;26.81;96.48
55490;BME280;44029;52.956;4.772;2022-08-20T07:51:56;101740.03;;;27.10;92.11
55490;BME280;44029;52.956;4.772;2022-08-20T07:54:22;101748.47;;;27.10;92.31
55490;BME280;44029;52.956;4.772;2022-08-20T07:56:48;101739.53;;;27.92;84.39
55490;BME280;44029;52.956;4.772;2022-08-20T07:59:13;101741.47;;;28.13;83.43
55490;BME280;44029;52.956;4.772;2022-08-20T08:01:38;101748.13;;;27.75;82.24
55490;BME280;44029;52.956;4.772;2022-08-20T08:04:04;101748.75;;;28.14;77.28
55490;BME280;44029;52.956;4.772;2022-08-20T08:06:30;101748.19;;;28.21;72.40
55490;BME280;44029;52.956;4.772;2022-08-20T08:08:58;101746.69;;;27.90;73.19
55490;BME280;44029;52.956;4.772;2022-08-20T08:11:26;101752.03;;;28.16;75.32
55490;BME280;44029;52.956;4.772;2022-08-20T08:13:51;101757.25;;;28.39;71.05
55490;BME280;44029;52.956;4.772;2022-08-20T08:16:16;101755.84;;;28.32;75.41
55490;BME280;44029;52.956;4.772;2022-08-20T08:18:46;101753.75;;;28.42;78.71
55490;BME280;44029;52.956;4.772;2022-08-20T08:21:14;101759.19;;;28.71;79.72
55490;BME280;44029;52.956;4.772;2022-08-20T08:23:40;101762.53;;;28.40;79.89
55490;BME280;44029;52.956;4.772;2022-08-20T08:26:09;101760.19;;;28.42;78.48
55490;BME280;44029;52.956;4.772;2022-08-20T08:28:34;101762.47;;;28.86;77.28
55490;BME280;44029;52.956;4.772;2022-08-20T08:31:01;101765.25;;;28.49;76.06
55490;BME280;44029;52.956;4.772;2022-08-20T08:33:29;101763.19;;;28.58;81.26
55490;BME280;44029;52.956;4.772;2022-08-20T08:36:05;101761.06;;;28.80;79.03
55490;BME280;44029;52.956;4.772;2022-08-20T08:38:32;101765.06;;;28.54;81.23
55490;BME280;44029;52.956;4.772;2022-08-20T08:43:40;101770.44;;;28.59;87.53
55490;BME280;44029;52.956;4.772;2022-08-20T08:46:09;101775.63;;;28.69;88.08
55490;BME280;44029;52.956;4.772;2022-08-20T08:48:40;101767.59;;;28.34;85.84
55490;BME280;44029;52.956;4.772;2022-08-20T08:51:09;101773.75;;;27.82;89.43
55490;BME280;44029;52.956;4.772;2022-08-20T08:53:39;101772.25;;;28.18;89.11
55490;BME280;44029;52.956;4.772;2022-08-20T08:56:07;101779.56;;;28.44;92.57
55490;BME280;44029;52.956;4.772;2022-08-20T08:58:34;101780.22;;;28.16;88.78
55490;BME280;44029;52.956;4.772;2022-08-20T09:01:09;101789.84;;;28.73;85.82
55490;BME280;44029;52.956;4.772;2022-08-20T09:03:38;101792.88;;;28.56;86.47
55490;BME280;44029;52.956;4.772;2022-08-20T09:06:04;101788.13;;;28.23;88.52
55490;BME280;44029;52.956;4.772;2022-08-20T09:08:45;101787.41;;;27.92;92.26
55490;BME280;44029;52.956;4.772;2022-08-20T09:11:13;101784.19;;;28.03;94.31
55490;BME280;44029;52.956;4.772;2022-08-20T09:13:38;101785.78;;;27.49;97.73
55490;BME280;44029;52.956;4.772;2022-08-20T09:16:04;101785.03;;;27.40;100.00
55490;BME280;44029;52.956;4.772;2022-08-20T09:18:30;101790.09;;;27.26;100.00
55490;BME280;44029;52.956;4.772;2022-08-20T09:20:56;101789.00;;;27.09;100.00
55490;BME280;44029;52.956;4.772;2022-08-20T09:23:21;101789.72;;;26.68;100.00
55490;BME280;44029;52.956;4.772;2022-08-20T09:25:47;101780.94;;;26.13;100.00
55490;BME280;44029;52.956;4.772;2022-08-20T09:28:12;101781.69;;;26.49;100.00
55490;BME280;44029;52.956;4.772;2022-08-20T09:30:37;101784.06;;;27.06;100.00
55490;BME280;44029;52.956;4.772;2022-08-20T09:33:03;101783.72;;;26.78;100.00
55490;BME280;44029;52.956;4.772;2022-08-20T09:35:28;101777.88;;;26.45;100.00
55490;BME280;44029;52.956;4.772;2022-08-20T09:37:54;101774.53;;;26.51;100.00
55490;BME280;44029;52.956;4.772;2022-08-20T09:40:20;101787.56;;;26.56;100.00
55490;BME280;44029;52.956;4.772;2022-08-20T09:42:45;101787.44;;;26.52;100.00
55490;BME280;44029;52.956;4.772;2022-08-20T09:45:12;101772.38;;;26.66;100.00
55490;BME280;44029;52.956;4.772;2022-08-20T09:47:39;101775.19;;;26.95;100.00
55490;BME280;44029;52.956;4.772;2022-08-20T09:53:27;101769.25;;;27.18;100.00
55490;BME280;44029;52.956;4.772;2022-08-20T09:55:54;101777.81;;;27.30;100.00
55490;BME280;44029;52.956;4.772;2022-08-20T09:58:21;101767.88;;;27.24;100.00
55490;BME280;44029;52.956;4.772;2022-08-20T10:01:07;101777.22;;;27.16;100.00
55490;BME280;44029;52.956;4.772;2022-08-20T10:03:33;101771.13;;;26.84;100.00
55490;BME280;44029;52.956;4.772;2022-08-20T10:05:58;101767.09;;;26.94;100.00
55490;BME280;44029;52.956;4.772;2022-08-20T10:08:24;101769.91;;;26.94;100.00
55490;BME280;44029;52.956;4.772;2022-08-20T10:10:50;101776.44;;;27.07;100.00
55490;BME280;44029;52.956;4.772;2022-08-20T10:13:15;101777.75;;;26.79;100.00
55490;BME280;44029;52.956;4.772;2022-08-20T10:15:40;101776.00;;;26.66;100.00
55490;BME280;44029;52.956;4.772;2022-08-20T10:18:06;101765.25;;;26.98;100.00
55490;BME280;44029;52.956;4.772;2022-08-20T10:20:31;101774.63;;;26.72;100.00
55490;BME280;44029;52.956;4.772;2022-08-20T10:22:57;101766.03;;;26.77;100.00
55490;BME280;44029;52.956;4.772;2022-08-20T10:25:22;101760.81;;;26.97;100.00
55490;BME280;44029;52.956;4.772;2022-08-20T10:27:48;101769.91;;;26.94;100.00
55490;BME280;44029;52.956;4.772;2022-08-20T10:30:13;101767.56;;;26.57;100.00
55490;BME280;44029;52.956;4.772;2022-08-20T10:32:39;101773.78;;;26.80;100.00
55490;BME280;44029;52.956;4.772;2022-08-20T10:35:05;101775.50;;;26.73;100.00
55490;BME280;44029;52.956;4.772;2022-08-20T10:37:30;101765.69;;;27.09;100.00
55490;BME280;44029;52.956;4.772;2022-08-20T10:39:56;101771.94;;;27.14;100.00
55490;BME280;44029;52.956;4.772;2022-08-20T10:42:22;101765.31;;;27.61;100.00
55490;BME280;44029;52.956;4.772;2022-08-20T10:44:47;101766.47;;;27.39;100.00
55490;BME280;44029;52.956;4.772;2022-08-20T10:47:17;101763.47;;;26.93;100.00
55490;BME280;44029;52.956;4.772;2022-08-20T10:49:43;101771.50;;;26.74;100.00
55490;BME280;44029;52.956;4.772;2022-08-20T10:52:08;101770.88;;;26.68;100.00
55490;BME280;44029;52.956;4.772;2022-08-20T10:54:34;101774.53;;;26.51;100.00
55490;BME280;44029;52.956;4.772;2022-08-20T10:57:03;101764.75;;;26.66;100.00
55490;BME280;44029;52.956;4.772;2022-08-20T10:59:28;101766.03;;;26.77;100.00
55490;BME280;44029;52.956;4.772;2022-08-20T11:01:54;101758.50;;;26.60;100.00
55490;BME280;44029;52.956;4.772;2022-08-20T11:04:19;101758.81;;;26.97;100.00
55490;BME280;44029;52.956;4.772;2022-08-20T11:06:44;101764.88;;;26.78;100.00
55490;BME280;44029;52.956;4.772;2022-08-20T11:09:10;101768.78;;;26.39;100.00
55490;BME280;44029;52.956;4.772;2022-08-20T11:11:35;101769.91;;;26.08;100.00
55490;BME280;44029;52.956;4.772;2022-08-20T11:14:01;101772.56;;;25.70;100.00
55490;BME280;44029;52.956;4.772;2022-08-20T11:16:28;101781.28;;;25.68;100.00
55490;BME280;44029;52.956;4.772;2022-08-20T11:18:54;101782.44;;;25.84;100.00
55490;BME280;44029;52.956;4.772;2022-08-20T11:21:19;101774.22;;;25.97;100.00
55490;BME280;44029;52.956;4.772;2022-08-20T11:23:44;101777.28;;;26.21;100.00
55490;BME280;44029;52.956;4.772;2022-08-20T11:26:17;101772.00;;;26.29;100.00
55490;BME280;44029;52.956;4.772;2022-08-20T11:28:45;101773.38;;;25.88;100.00
55490;BME280;44029;52.956;4.772;2022-08-20T11:31:10;101780.44;;;25.85;100.00
55490;BME280;44029;52.956;4.772;2022-08-20T11:33:35;101775.38;;;25.78;100.00
55490;BME280;44029;52.956;4.772;2022-08-20T11:36:01;101775.19;;;25.92;100.00
55490;BME280;44029;52.956;4.772;2022-08-20T11:38:26;101777.69;;;25.94;100.00
55490;BME280;44029;52.956;4.772;2022-08-20T11:40:51;101773.53;;;25.74;100.00
55490;BME280;44029;52.956;4.772;2022-08-20T11:43:16;101786.41;;;25.57;100.00
55490;BME280;44029;52.956;4.772;2022-08-20T11:45:47;101779.97;;;25.74;100.00
55490;BME280;44029;52.956;4.772;2022-08-20T11:48:13;101785.94;;;25.73;100.00
55490;BME280;44029;52.956;4.772;2022-08-20T11:50:39;101777.84;;;25.97;100.00
55490;BME280;44029;52.956;4.772;2022-08-20T11:53:04;101790.38;;;25.91;100.00
55490;BME280;44029;52.956;4.772;2022-08-20T11:55:29;101772.16;;;26.15;100.00
55490;BME280;44029;52.956;4.772;2022-08-20T11:57:54;101772.38;;;25.92;100.00
55490;BME280;44029;52.956;4.772;2022-08-20T12:00:21;101772.72;;;25.64;100.00
55490;BME280;44029;52.956;4.772;2022-08-20T12:02:48;101773.84;;;25.81;100.00
55490;BME280;44029;52.956;4.772;2022-08-20T12:05:15;101777.34;;;25.60;100.00
55490;BME280;44029;52.956;4.772;2022-08-20T12:07:41;101770.22;;;25.63;100.00
55490;BME280;44029;52.956;4.772;2022-08-20T12:10:07;101770.06;;;25.59;100.00
55490;BME280;44029;52.956;4.772;2022-08-20T12:12:34;101770.56;;;25.61;100.00
55490;BME280;44029;52.956;4.772;2022-08-20T12:15:00;101768.56;;;25.71;100.00
55490;BME280;44029;52.956;4.772;2022-08-20T12:17:27;101772.56;;;25.70;100.00
55490;BME280;44029;52.956;4.772;2022-08-20T12:19:55;101768.75;;;25.48;100.00
55490;BME280;44029;52.956;4.772;2022-08-20T12:22:22;101776.66;;;25.37;100.00
55490;BME280;44029;52.956;4.772;2022-08-20T12:24:47;101771.56;;;25.57;100.00
55490;BME280;44029;52.956;4.772;2022-08-20T12:27:22;101779.16;;;25.91;100.00
55490;BME280;44029;52.956;4.772;2022-08-20T12:29:50;101773.53;;;26.09;100.00
55490;BME280;44029;52.956;4.772;2022-08-20T12:32:18;101773.53;;;25.91;100.00
55490;BME280;44029;52.956;4.772;2022-08-20T12:34:43;101778.66;;;26.07;100.00
55490;BME280;44029;52.956;4.772;2022-08-20T12:37:10;101785.41;;;26.06;100.00
55490;BME280;44029;52.956;4.772;2022-08-20T12:39:38;101772.97;;;26.24;100.00
55490;BME280;44029;52.956;4.772;2022-08-20T12:42:04;101767.84;;;26.26;100.00
55490;BME280;44029;52.956;4.772;2022-08-20T12:44:30;101758.88;;;26.41;100.00
55490;BME280;44029;52.956;4.772;2022-08-20T12:47:21;101765.31;;;26.42;100.00
55490;BME280;44029;52.956;4.772;2022-08-20T12:49:50;101770.13;;;26.41;100.00